sensor_id;sensor_type;location;lat;lon;timestamp;P1;durP1;ratioP1;P2;durP2;ratioP2
9489;SDS011;4783;42.734;23.288;2022-08-19T08:53:09;10.30;;;6.25;;
9489;SDS011;4783;42.734;23.288;2022-08-19T08:55:35;9.07;;;6.50;;
9489;SDS011;4783;42.734;23.288;2022-08-19T08:58:02;8.10;;;6.32;;
9489;SDS011;4783;42.734;23.288;2022-08-19T09:02:57;6.57;;;4.47;;
9489;SDS011;4783;42.734;23.288;2022-08-19T09:05:23;13.73;;;5.10;;
9489;SDS011;4783;42.734;23.288;2022-08-19T09:13:05;15.30;;;5.57;;
9489;SDS011;4783;42.734;23.288;2022-08-19T09:15:33;9.98;;;4.40;;
9489;SDS011;4783;42.734;23.288;2022-08-19T09:18:01;8.98;;;4.25;;
9489;SDS011;4783;42.734;23.288;2022-08-19T09:20:26;8.98;;;3.90;;
9489;SDS011;4783;42.734;23.288;2022-08-19T09:22:52;6.65;;;4.22;;
9489;SDS011;4783;42.734;23.288;2022-08-19T09:25:18;7.80;;;4.25;;
9489;SDS011;4783;42.734;23.288;2022-08-19T09:27:45;6.10;;;3.83;;
9489;SDS011;4783;42.734;23.288;2022-08-19T09:30:13;5.85;;;3.88;;
9489;SDS011;4783;42.734;23.288;2022-08-19T09:32:39;5.25;;;3.78;;
9489;SDS011;4783;42.734;23.288;2022-08-19T09:35:06;4.15;;;3.08;;
9489;SDS011;4783;42.734;23.288;2022-08-19T09:37:32;6.53;;;3.50;;
9489;SDS011;4783;42.734;23.288;2022-08-19T09:39:58;6.10;;;3.38;;
9489;SDS011;4783;42.734;23.288;2022-08-19T09:42:23;6.57;;;3.70;;
9489;SDS011;4783;42.734;23.288;2022-08-19T09:44:48;4.95;;;3.58;;
9489;SDS011;4783;42.734;23.288;2022-08-19T09:47:13;8.48;;;3.60;;
9489;SDS011;4783;42.734;23.288;2022-08-19T09:49:39;6.47;;;3.30;;
9489;SDS011;4783;42.734;23.288;2022-08-19T09:52:05;4.53;;;3.70;;
9489;SDS011;4783;42.734;23.288;2022-08-19T09:54:31;6.53;;;3.95;;
9489;SDS011;4783;42.734;23.288;2022-08-19T09:56:57;5.43;;;3.67;;
9489;SDS011;4783;42.734;23.288;2022-08-19T09:59:23;14.63;;;4.03;;
9489;SDS011;4783;42.734;23.288;2022-08-19T10:01:48;9.18;;;3.53;;
9489;SDS011;4783;42.734;23.288;2022-08-19T10:04:14;6.68;;;4.00;;
9489;SDS011;4783;42.734;23.288;2022-08-19T10:06:39;4.75;;;4.00;;
9489;SDS011;4783;42.734;23.288;2022-08-19T10:09:07;13.25;;;4.43;;
9489;SDS011;4783;42.734;23.288;2022-08-19T10:11:33;7.65;;;3.45;;
9489;SDS011;4783;42.734;23.288;2022-08-19T10:13:59;8.55;;;4.07;;
9489;SDS011;4783;42.734;23.288;2022-08-19T10:16:25;5.82;;;3.38;;
9489;SDS011;4783;42.734;23.288;2022-08-19T10:18:52;4.72;;;3.58;;
9489;SDS011;4783;42.734;23.288;2022-08-19T10:23:45;5.93;;;3.95;;
9489;SDS011;4783;42.734;23.288;2022-08-19T10:26:15;5.60;;;3.67;;
9489;SDS011;4783;42.734;23.288;2022-08-19T10:28:41;3.88;;;3.50;;
9489;SDS011;4783;42.734;23.288;2022-08-19T10:31:07;11.75;;;4.20;;
9489;SDS011;4783;42.734;23.288;2022-08-19T10:33:33;9.75;;;4.10;;
9489;SDS011;4783;42.734;23.288;2022-08-19T10:36:00;10.07;;;4.38;;
9489;SDS011;4783;42.734;23.288;2022-08-19T10:38:25;6.63;;;3.75;;
9489;SDS011;4783;42.734;23.288;2022-08-19T10:40:50;5.35;;;3.88;;
9489;SDS011;4783;42.734;23.288;2022-08-19T10:43:16;4.15;;;3.60;;
9489;SDS011;4783;42.734;23.288;2022-08-19T10:45:42;4.75;;;3.67;;
9489;SDS011;4783;42.734;23.288;2022-08-19T10:48:07;4.88;;;3.45;;
9489;SDS011;4783;42.734;23.288;2022-08-19T10:50:32;6.68;;;3.65;;
9489;SDS011;4783;42.734;23.288;2022-08-19T10:53:16;5.50;;;4.10;;
9489;SDS011;4783;42.734;23.288;2022-08-19T10:55:44;7.20;;;3.85;;
9489;SDS011;4783;42.734;23.288;2022-08-19T10:58:35;6.90;;;3.55;;
9489;SDS011;4783;42.734;23.288;2022-08-19T11:01:01;4.72;;;3.90;;
9489;SDS011;4783;42.734;23.288;2022-08-19T11:03:26;5.10;;;3.90;;
9489;SDS011;4783;42.734;23.288;2022-08-19T11:06:03;8.65;;;4.15;;
9489;SDS011;4783;42.734;23.288;2022-08-19T11:08:29;6.90;;;3.78;;
9489;SDS011;4783;42.734;23.288;2022-08-19T11:10:58;9.65;;;4.57;;
9489;SDS011;4783;42.734;23.288;2022-08-19T11:13:25;6.05;;;3.80;;
9489;SDS011;4783;42.734;23.288;2022-08-19T11:16:00;7.57;;;4.40;;
9489;SDS011;4783;42.734;23.288;2022-08-19T11:18:27;3.80;;;3.40;;
9489;SDS011;4783;42.734;23.288;2022-08-19T11:20:52;6.97;;;4.05;;
9489;SDS011;4783;42.734;23.288;2022-08-19T11:23:17;5.13;;;3.50;;
9489;SDS011;4783;42.734;23.288;2022-08-19T11:25:43;6.57;;;4.03;;
9489;SDS011;4783;42.734;23.288;2022-08-19T11:28:08;9.77;;;4.00;;
9489;SDS011;4783;42.734;23.288;2022-08-19T11:30:33;6.57;;;3.93;;
9489;SDS011;4783;42.734;23.288;2022-08-19T11:32:59;8.38;;;3.92;;
9489;SDS011;4783;42.734;23.288;2022-08-19T11:35:26;5.90;;;3.88;;
9489;SDS011;4783;42.734;23.288;2022-08-19T11:37:51;7.40;;;3.70;;
9489;SDS011;4783;42.734;23.288;2022-08-19T11:40:16;5.38;;;4.20;;
9489;SDS011;4783;42.734;23.288;2022-08-19T11:42:42;10.05;;;4.15;;
9489;SDS011;4783;42.734;23.288;2022-08-19T11:45:23;6.55;;;4.13;;
9489;SDS011;4783;42.734;23.288;2022-08-19T11:47:48;8.57;;;4.47;;
9489;SDS011;4783;42.734;23.288;2022-08-19T11:50:14;5.78;;;3.72;;
9489;SDS011;4783;42.734;23.288;2022-08-19T11:52:39;6.30;;;3.90;;
9489;SDS011;4783;42.734;23.288;2022-08-19T11:55:05;8.57;;;4.00;;
9489;SDS011;4783;42.734;23.288;2022-08-19T11:57:31;6.18;;;3.40;;
9489;SDS011;4783;42.734;23.288;2022-08-19T11:59:56;8.13;;;3.47;;
9489;SDS011;4783;42.734;23.288;2022-08-19T12:02:21;4.43;;;3.33;;
9489;SDS011;4783;42.734;23.288;2022-08-19T12:04:48;7.00;;;3.22;;
9489;SDS011;4783;42.734;23.288;2022-08-19T12:07:13;6.38;;;3.40;;
9489;SDS011;4783;42.734;23.288;2022-08-19T12:09:38;4.13;;;3.40;;
9489;SDS011;4783;42.734;23.288;2022-08-19T12:12:04;5.45;;;3.78;;
9489;SDS011;4783;42.734;23.288;2022-08-19T12:14:29;7.93;;;3.50;;
9489;SDS011;4783;42.734;23.288;2022-08-19T12:16:56;3.72;;;3.10;;
9489;SDS011;4783;42.734;23.288;2022-08-19T12:19:22;8.57;;;3.58;;
9489;SDS011;4783;42.734;23.288;2022-08-19T12:21:47;8.95;;;3.63;;
9489;SDS011;4783;42.734;23.288;2022-08-19T12:24:13;4.80;;;3.38;;
9489;SDS011;4783;42.734;23.288;2022-08-19T12:26:38;7.38;;;3.42;;
9489;SDS011;4783;42.734;23.288;2022-08-19T12:29:03;7.45;;;3.75;;
9489;SDS011;4783;42.734;23.288;2022-08-19T12:31:29;9.13;;;4.00;;
9489;SDS011;4783;42.734;23.288;2022-08-19T12:33:54;6.68;;;3.40;;
9489;SDS011;4783;42.734;23.288;2022-08-19T12:36:21;5.13;;;3.50;;
9489;SDS011;4783;42.734;23.288;2022-08-19T12:38:47;6.32;;;3.60;;
9489;SDS011;4783;42.734;23.288;2022-08-19T12:41:14;5.18;;;3.30;;
9489;SDS011;4783;42.734;23.288;2022-08-19T12:43:40;7.85;;;3.78;;
9489;SDS011;4783;42.734;23.288;2022-08-19T12:46:07;8.98;;;3.35;;
9489;SDS011;4783;42.734;23.288;2022-08-19T12:48:33;6.15;;;3.97;;
9489;SDS011;4783;42.734;23.288;2022-08-19T12:50:58;4.85;;;3.58;;
9489;SDS011;4783;42.734;23.288;2022-08-19T12:53:24;6.78;;;3.65;;
9489;SDS011;4783;42.734;23.288;2022-08-19T12:55:59;4.97;;;3.45;;
9489;SDS011;4783;42.734;23.288;2022-08-19T12:58:24;6.25;;;3.17;;
9489;SDS011;4783;42.734;23.288;2022-08-19T13:00:50;7.07;;;3.38;;
9489;SDS011;4783;42.734;23.288;2022-08-19T13:03:16;5.57;;;3.72;;
9489;SDS011;4783;42.734;23.288;2022-08-19T13:05:41;6.53;;;3.72;;
9489;SDS011;4783;42.734;23.288;2022-08-19T13:08:06;4.78;;;3.28;;
9489;SDS011;4783;42.734;23.288;2022-08-19T13:10:32;6.33;;;3.10;;
9489;SDS011;4783;42.734;23.288;2022-08-19T13:12:59;5.88;;;2.90;;
9489;SDS011;4783;42.734;23.288;2022-08-19T13:15:26;6.10;;;3.42;;
9489;SDS011;4783;42.734;23.288;2022-08-19T13:17:53;9.57;;;3.60;;
9489;SDS011;4783;42.734;23.288;2022-08-19T13:20:20;8.05;;;3.15;;
9489;SDS011;4783;42.734;23.288;2022-08-19T13:22:47;4.18;;;3.17;;
9489;SDS011;4783;42.734;23.288;2022-08-19T13:25:13;7.45;;;3.38;;
9489;SDS011;4783;42.734;23.288;2022-08-19T13:27:40;5.10;;;3.13;;
9489;SDS011;4783;42.734;23.288;2022-08-19T13:30:06;9.00;;;3.58;;
9489;SDS011;4783;42.734;23.288;2022-08-19T13:32:50;6.78;;;3.42;;
9489;SDS011;4783;42.734;23.288;2022-08-19T13:35:34;5.22;;;3.35;;
9489;SDS011;4783;42.734;23.288;2022-08-19T13:38:00;6.13;;;3.50;;
9489;SDS011;4783;42.734;23.288;2022-08-19T13:40:30;7.97;;;3.45;;
9489;SDS011;4783;42.734;23.288;2022-08-19T13:42:58;4.90;;;3.50;;
9489;SDS011;4783;42.734;23.288;2022-08-19T13:45:24;6.57;;;3.45;;
9489;SDS011;4783;42.734;23.288;2022-08-19T13:47:53;5.75;;;3.05;;
9489;SDS011;4783;42.734;23.288;2022-08-19T13:50:20;6.38;;;3.53;;
9489;SDS011;4783;42.734;23.288;2022-08-19T13:52:45;5.07;;;3.28;;
9489;SDS011;4783;42.734;23.288;2022-08-19T13:55:12;6.63;;;3.33;;
9489;SDS011;4783;42.734;23.288;2022-08-19T13:57:37;6.28;;;3.28;;
9489;SDS011;4783;42.734;23.288;2022-08-19T14:00:07;9.25;;;3.33;;
9489;SDS011;4783;42.734;23.288;2022-08-19T14:02:35;7.72;;;3.20;;
9489;SDS011;4783;42.734;23.288;2022-08-19T14:05:00;4.63;;;2.97;;
9489;SDS011;4783;42.734;23.288;2022-08-19T14:07:25;8.07;;;3.10;;
9489;SDS011;4783;42.734;23.288;2022-08-19T14:09:51;10.68;;;3.30;;
9489;SDS011;4783;42.734;23.288;2022-08-19T14:12:22;8.37;;;3.40;;
9489;SDS011;4783;42.734;23.288;2022-08-19T14:14:47;4.82;;;3.25;;
9489;SDS011;4783;42.734;23.288;2022-08-19T14:17:12;7.10;;;3.20;;
9489;SDS011;4783;42.734;23.288;2022-08-19T14:19:38;5.22;;;3.00;;
9489;SDS011;4783;42.734;23.288;2022-08-19T14:22:03;5.80;;;3.37;;
9489;SDS011;4783;42.734;23.288;2022-08-19T14:24:29;4.90;;;3.28;;
9489;SDS011;4783;42.734;23.288;2022-08-19T14:26:54;5.47;;;3.83;;
9489;SDS011;4783;42.734;23.288;2022-08-19T14:29:19;10.53;;;4.03;;
9489;SDS011;4783;42.734;23.288;2022-08-19T14:31:45;8.57;;;3.57;;
9489;SDS011;4783;42.734;23.288;2022-08-19T14:34:10;6.72;;;3.13;;
9489;SDS011;4783;42.734;23.288;2022-08-19T14:36:37;5.43;;;2.65;;
9489;SDS011;4783;42.734;23.288;2022-08-19T14:39:03;4.00;;;3.03;;
9489;SDS011;4783;42.734;23.288;2022-08-19T14:41:28;5.38;;;2.85;;
9489;SDS011;4783;42.734;23.288;2022-08-19T14:43:55;6.22;;;2.70;;
9489;SDS011;4783;42.734;23.288;2022-08-19T14:46:22;4.50;;;3.15;;
9489;SDS011;4783;42.734;23.288;2022-08-19T14:48:48;8.50;;;3.10;;
9489;SDS011;4783;42.734;23.288;2022-08-19T14:51:14;11.77;;;3.38;;
9489;SDS011;4783;42.734;23.288;2022-08-19T14:53:39;7.35;;;3.28;;
9489;SDS011;4783;42.734;23.288;2022-08-19T14:56:09;4.95;;;2.90;;
9489;SDS011;4783;42.734;23.288;2022-08-19T14:58:35;8.02;;;3.22;;
9489;SDS011;4783;42.734;23.288;2022-08-19T15:01:01;9.82;;;3.22;;
9489;SDS011;4783;42.734;23.288;2022-08-19T15:03:26;9.18;;;3.65;;
9489;SDS011;4783;42.734;23.288;2022-08-19T15:05:52;4.30;;;2.92;;
9489;SDS011;4783;42.734;23.288;2022-08-19T15:08:17;6.38;;;3.10;;
9489;SDS011;4783;42.734;23.288;2022-08-19T15:10:42;4.32;;;2.97;;
9489;SDS011;4783;42.734;23.288;2022-08-19T15:13:08;9.18;;;3.35;;
9489;SDS011;4783;42.734;23.288;2022-08-19T15:15:34;4.28;;;3.25;;
9489;SDS011;4783;42.734;23.288;2022-08-19T15:18:00;9.52;;;3.80;;
9489;SDS011;4783;42.734;23.288;2022-08-19T15:20:27;8.93;;;3.65;;
9489;SDS011;4783;42.734;23.288;2022-08-19T15:22:53;29.13;;;5.80;;
9489;SDS011;4783;42.734;23.288;2022-08-19T15:25:18;7.10;;;3.57;;
9489;SDS011;4783;42.734;23.288;2022-08-19T15:27:45;5.65;;;3.67;;
9489;SDS011;4783;42.734;23.288;2022-08-19T15:30:11;9.20;;;3.67;;
9489;SDS011;4783;42.734;23.288;2022-08-19T15:32:37;6.38;;;3.53;;
9489;SDS011;4783;42.734;23.288;2022-08-19T15:35:02;6.50;;;3.58;;
9489;SDS011;4783;42.734;23.288;2022-08-19T15:37:28;8.18;;;3.42;;
9489;SDS011;4783;42.734;23.288;2022-08-19T15:39:53;12.48;;;3.50;;
9489;SDS011;4783;42.734;23.288;2022-08-19T15:42:19;12.88;;;4.22;;
9489;SDS011;4783;42.734;23.288;2022-08-19T15:44:45;10.48;;;3.45;;
9489;SDS011;4783;42.734;23.288;2022-08-19T15:47:11;11.30;;;3.90;;
9489;SDS011;4783;42.734;23.288;2022-08-19T15:49:36;8.80;;;4.18;;
9489;SDS011;4783;42.734;23.288;2022-08-19T15:52:02;8.55;;;3.80;;
9489;SDS011;4783;42.734;23.288;2022-08-19T15:54:27;8.10;;;3.90;;
